Terminal Aerodrome Forecast
Issued by NWS Cleveland, OH

Home | Current Version | Previous Version | Graphics & Text | Print | Product List | Glossary On
Versions: 1 2 3 4 5 6 7 8 9 10 11 12 13 14 15
326
FTUS41 KCLE 112330
TAFTOL
TAF
KTOL 112330Z 1200/1224 25006KT P6SM BKN040
     FM121100 23006KT P6SM BKN100
     FM121500 25012G20KT P6SM SCT035 OVC100
     FM121900 27014G22KT 6SM -SHSN SCT025 OVC040=

USA.gov is the U.S. government's official web portal to all federal, state and local government web resources and services.